createdAt,value
2022-11-17T00:00:42.201Z,21.45
2022-11-17T00:03:16.232Z,24.42
2022-11-17T00:05:44.689Z,23.98
2022-11-17T00:08:12.283Z,19.05
2022-11-17T00:10:39.685Z,21.15
2022-11-17T00:13:25.559Z,21.13
2022-11-17T00:15:52.921Z,23.88
2022-11-17T00:18:38.778Z,24.13
2022-11-17T00:21:21.707Z,24.33
2022-11-17T00:23:52.231Z,23.67
2022-11-17T00:26:22.224Z,27.80
2022-11-17T00:28:54.609Z,24.73
2022-11-17T00:31:42.204Z,30.15
2022-11-17T00:34:18.105Z,28.85
2022-11-17T00:36:47.458Z,29.10
2022-11-17T00:39:16.910Z,27.73
2022-11-17T00:41:44.311Z,28.02
2022-11-17T00:44:12.414Z,25.77
2022-11-17T00:46:40.072Z,25.65
2022-11-17T00:49:08.920Z,28.92
2022-11-17T00:51:36.884Z,27.88
2022-11-17T00:54:05.253Z,28.83
2022-11-17T00:56:33.671Z,24.52
2022-11-17T00:59:01.193Z,25.92
2022-11-17T01:01:30.132Z,27.27
2022-11-17T01:04:05.485Z,28.17
2022-11-17T01:06:38.695Z,26.63
2022-11-17T01:09:12.174Z,25.20
2022-11-17T01:11:40.176Z,27.85
2022-11-17T01:14:11.205Z,21.75
2022-11-17T01:16:38.639Z,30.37
2022-11-17T01:19:06.152Z,21.15
2022-11-17T01:21:33.595Z,20.58
2022-11-17T01:24:02.038Z,21.08
2022-11-17T01:26:34.565Z,19.07
2022-11-17T01:29:04.015Z,24.77
2022-11-17T01:31:37.011Z,23.95
2022-11-17T01:34:04.461Z,19.35
2022-11-17T01:36:57.429Z,19.52
2022-11-17T01:39:26.784Z,19.17
2022-11-17T01:41:55.067Z,20.80
2022-11-17T01:44:50.166Z,20.30
2022-11-17T01:47:35.320Z,22.70
2022-11-17T01:50:30.046Z,19.13
2022-11-17T01:53:05.247Z,21.35
2022-11-17T01:55:48.683Z,23.55
2022-11-17T01:58:24.583Z,24.40
2022-11-17T02:00:54.267Z,23.27
2022-11-17T02:03:22.755Z,27.00
2022-11-17T02:06:08.649Z,24.70
2022-11-17T02:08:38.740Z,24.67
2022-11-17T02:11:11.752Z,24.63
2022-11-17T02:13:40.829Z,24.50
2022-11-17T02:16:13.157Z,24.65
2022-11-17T02:18:42.342Z,23.52
2022-11-17T02:21:28.411Z,22.15
2022-11-17T02:24:20.641Z,24.05
2022-11-17T02:27:13.152Z,22.50
2022-11-17T02:32:42.330Z,20.65
2022-11-17T02:35:19.943Z,23.10
2022-11-17T02:38:09.256Z,23.23
2022-11-17T02:40:52.793Z,20.67
2022-11-17T02:43:43.241Z,19.25
2022-11-17T02:46:16.839Z,21.33
2022-11-17T02:49:24.679Z,20.98
2022-11-17T02:51:55.452Z,20.60
2022-11-17T02:54:25.448Z,21.00
2022-11-17T02:56:52.903Z,19.58
2022-11-17T02:59:25.739Z,21.70
2022-11-17T03:02:24.131Z,21.90
2022-11-17T03:05:06.657Z,20.92
2022-11-17T03:08:00.637Z,16.92
2022-11-17T03:10:33.900Z,22.98
2022-11-17T03:13:26.053Z,18.23
2022-11-17T03:15:59.752Z,18.27
2022-11-17T03:18:37.305Z,17.73
2022-11-17T03:21:16.449Z,19.42
2022-11-17T03:24:16.137Z,18.55
2022-11-17T03:26:50.314Z,19.70
2022-11-17T03:29:21.462Z,18.13
2022-11-17T03:31:50.406Z,16.88
2022-11-17T03:34:22.956Z,17.08
2022-11-17T03:36:55.760Z,19.08
2022-11-17T03:39:30.482Z,18.13
2022-11-17T03:42:04.755Z,17.67
2022-11-17T03:44:35.100Z,16.52
2022-11-17T03:47:05.038Z,19.77
2022-11-17T03:49:38.174Z,17.13
2022-11-17T03:52:08.948Z,17.48
2022-11-17T03:54:36.994Z,17.38
2022-11-17T03:57:36.728Z,15.95
2022-11-17T04:00:08.300Z,16.60
2022-11-17T04:02:43.283Z,18.25
2022-11-17T04:05:13.143Z,19.83
2022-11-17T04:07:43.974Z,22.30
2022-11-17T04:10:13.971Z,27.00
2022-11-17T04:13:01.573Z,19.75
2022-11-17T04:15:47.320Z,19.25
2022-11-17T04:18:15.337Z,23.40
2022-11-17T04:20:43.209Z,19.80
2022-11-17T04:23:14.190Z,23.70
2022-11-17T04:26:03.046Z,24.13
2022-11-17T04:28:37.861Z,23.98
2022-11-17T04:31:25.822Z,21.33
2022-11-17T04:34:06.609Z,23.40
2022-11-17T04:36:43.416Z,18.55
2022-11-17T04:39:12.922Z,17.48
2022-11-17T04:42:05.449Z,15.43
2022-11-17T04:44:35.451Z,16.55
2022-11-17T04:47:03.734Z,17.70
2022-11-17T04:49:32.022Z,19.63
2022-11-17T04:51:59.497Z,22.95
2022-11-17T04:54:26.972Z,17.75
2022-11-17T04:56:55.885Z,34.72
2022-11-17T04:59:26.117Z,21.38
2022-11-17T05:01:57.839Z,25.23
2022-11-17T05:04:47.149Z,35.65
2022-11-17T05:07:14.581Z,29.77
2022-11-17T05:09:42.119Z,30.05
2022-11-17T05:12:27.955Z,32.53
2022-11-17T05:14:55.370Z,26.88
2022-11-17T05:17:22.741Z,24.80
2022-11-17T05:19:50.268Z,31.83
2022-11-17T05:22:39.821Z,29.60
2022-11-17T05:25:07.868Z,34.28
2022-11-17T05:27:35.683Z,27.02
2022-11-17T05:30:06.013Z,23.35
2022-11-17T05:32:33.348Z,28.38
2022-11-17T05:35:00.843Z,40.75
2022-11-17T05:37:28.190Z,27.02
2022-11-17T05:39:55.555Z,23.10
2022-11-17T05:42:22.924Z,41.45
2022-11-17T05:44:50.245Z,34.92
2022-11-17T05:47:17.520Z,31.42
2022-11-17T05:49:44.908Z,33.35
2022-11-17T05:52:12.292Z,21.60
2022-11-17T05:54:39.743Z,23.08
2022-11-17T05:57:13.095Z,19.10
2022-11-17T05:59:53.132Z,16.70
2022-11-17T06:02:27.772Z,17.70
2022-11-17T06:04:55.166Z,18.05
2022-11-17T06:07:23.138Z,14.88
2022-11-17T06:09:52.119Z,15.77
2022-11-17T06:12:19.487Z,14.70
2022-11-17T06:14:46.867Z,15.00
2022-11-17T06:17:23.193Z,18.75
2022-11-17T06:20:08.582Z,13.52
2022-11-17T06:22:36.381Z,16.75
2022-11-17T06:25:05.097Z,15.80
2022-11-17T06:27:33.154Z,18.45
2022-11-17T06:30:06.557Z,14.65
2022-11-17T06:32:36.678Z,13.32
2022-11-17T06:35:07.822Z,13.30
2022-11-17T06:37:35.219Z,14.50
2022-11-17T06:40:03.642Z,12.77
2022-11-17T06:42:49.457Z,18.60
2022-11-17T06:45:16.895Z,14.10
2022-11-17T06:47:47.163Z,15.02
2022-11-17T06:50:14.566Z,14.30
2022-11-17T06:52:42.020Z,15.20
2022-11-17T06:55:09.674Z,14.55
2022-11-17T06:57:37.234Z,15.35
2022-11-17T07:00:06.363Z,14.80
2022-11-17T07:02:33.845Z,18.02
2022-11-17T07:05:01.289Z,22.17
2022-11-17T07:07:28.777Z,16.95
2022-11-17T07:09:56.216Z,17.10
2022-11-17T07:12:23.573Z,20.02
2022-11-17T07:14:50.952Z,27.58
2022-11-17T07:17:18.344Z,22.17
2022-11-17T07:19:45.701Z,20.85
2022-11-17T07:22:13.059Z,25.00
2022-11-17T07:24:40.717Z,18.65
2022-11-17T07:27:08.330Z,22.00
2022-11-17T07:29:35.686Z,20.60
2022-11-17T07:32:03.695Z,23.80
2022-11-17T07:34:31.006Z,28.38
2022-11-17T07:37:01.378Z,25.08
2022-11-17T07:39:28.818Z,23.33
2022-11-17T07:41:56.199Z,27.00
2022-11-17T07:44:23.638Z,22.63
2022-11-17T07:46:51.101Z,24.23
2022-11-17T07:49:18.433Z,22.65
2022-11-17T07:51:45.872Z,21.58
2022-11-17T07:54:13.249Z,23.45
2022-11-17T07:56:40.778Z,21.85
2022-11-17T07:59:08.308Z,20.05
2022-11-17T08:01:36.036Z,22.45
2022-11-17T08:04:03.498Z,27.08
2022-11-17T08:06:30.961Z,27.10
2022-11-17T08:08:58.797Z,26.17
2022-11-17T08:11:26.085Z,28.92
2022-11-17T08:13:53.445Z,23.58
2022-11-17T08:16:20.934Z,23.42
2022-11-17T08:18:52.116Z,26.63
2022-11-17T08:21:20.157Z,27.33
2022-11-17T08:23:52.088Z,26.13
2022-11-17T08:28:52.150Z,27.10
2022-11-17T08:31:22.789Z,24.13
2022-11-17T08:33:50.243Z,22.25
2022-11-17T08:36:17.724Z,26.88
2022-11-17T08:38:45.185Z,29.48
2022-11-17T08:41:12.820Z,21.83
2022-11-17T08:43:40.326Z,25.83
2022-11-17T08:46:12.132Z,25.77
2022-11-17T08:48:39.861Z,27.40
2022-11-17T08:51:08.610Z,30.85
2022-11-17T08:53:35.968Z,31.98
2022-11-17T08:56:07.880Z,29.02
2022-11-17T08:58:43.336Z,28.27
2022-11-17T09:01:12.741Z,31.70
2022-11-17T09:03:42.781Z,29.77
2022-11-17T09:06:11.152Z,26.27
2022-11-17T09:08:45.586Z,30.55
2022-11-17T09:11:14.583Z,27.75
2022-11-17T09:13:42.336Z,30.00
2022-11-17T09:16:11.401Z,30.90
2022-11-17T09:18:40.121Z,30.00
2022-11-17T09:21:10.601Z,28.80
2022-11-17T09:23:38.598Z,29.40
2022-11-17T09:26:10.475Z,28.77
2022-11-17T09:28:38.820Z,31.65
2022-11-17T09:31:17.302Z,33.45
2022-11-17T09:33:45.832Z,34.53
2022-11-17T09:36:18.572Z,39.70
2022-11-17T09:38:48.662Z,36.85
2022-11-17T09:41:16.081Z,39.83
2022-11-17T09:43:51.420Z,36.50
2022-11-17T09:46:27.563Z,35.55
2022-11-17T09:49:02.921Z,36.15
2022-11-17T09:51:33.094Z,39.53
2022-11-17T09:54:13.544Z,34.72
2022-11-17T09:56:40.907Z,31.70
2022-11-17T09:59:13.367Z,27.13
2022-11-17T10:01:41.000Z,29.38
2022-11-17T10:04:12.768Z,28.17
2022-11-17T10:06:44.855Z,24.85
2022-11-17T10:11:59.674Z,26.92
2022-11-17T10:14:28.701Z,29.55
2022-11-17T10:17:00.261Z,26.02
2022-11-17T10:19:31.269Z,24.55
2022-11-17T10:22:01.619Z,22.83
2022-11-17T10:24:42.416Z,23.33
2022-11-17T10:27:21.925Z,23.58
2022-11-17T10:30:01.326Z,24.83
2022-11-17T10:32:32.128Z,22.67
2022-11-17T10:35:35.632Z,22.00
2022-11-17T10:38:10.592Z,21.80
2022-11-17T10:40:40.698Z,23.98
2022-11-17T10:43:14.272Z,46.10
2022-11-17T10:45:45.570Z,35.50
2022-11-17T10:48:28.313Z,25.23
2022-11-17T10:51:01.019Z,23.63
2022-11-17T10:53:44.928Z,23.67
2022-11-17T10:56:24.170Z,20.85
2022-11-17T10:59:11.431Z,23.25
2022-11-17T11:01:44.819Z,23.33
2022-11-17T11:04:39.598Z,22.65
2022-11-17T11:07:08.990Z,25.52
2022-11-17T11:09:42.845Z,27.38
2022-11-17T11:12:15.255Z,30.77
2022-11-17T11:14:48.913Z,31.15
2022-11-17T11:17:18.408Z,33.65
2022-11-17T11:19:53.421Z,36.17
2022-11-17T11:22:50.001Z,32.90
2022-11-17T11:25:41.142Z,30.30
2022-11-17T11:28:20.749Z,30.27
2022-11-17T11:31:26.664Z,28.20
2022-11-17T11:34:06.805Z,32.42
2022-11-17T11:36:54.485Z,29.25
2022-11-17T11:39:55.547Z,30.83
2022-11-17T11:42:58.016Z,32.13
2022-11-17T11:45:35.319Z,30.98
2022-11-17T11:48:15.424Z,29.63
2022-11-17T11:50:55.126Z,31.83
2022-11-17T11:53:29.837Z,28.85
2022-11-17T11:56:33.050Z,27.23
2022-11-17T11:59:07.158Z,27.17
2022-11-17T12:02:14.511Z,30.52
2022-11-17T12:05:00.421Z,30.38
2022-11-17T12:07:40.389Z,29.83
2022-11-17T12:10:39.012Z,31.77
2022-11-17T12:13:14.942Z,35.42
2022-11-17T12:15:42.730Z,35.33
2022-11-17T12:18:22.436Z,38.03
2022-11-17T12:20:52.797Z,37.22
2022-11-17T12:23:29.626Z,42.80
2022-11-17T12:25:59.084Z,41.13
2022-11-17T12:28:28.312Z,42.55
2022-11-17T12:30:58.962Z,41.65
2022-11-17T12:33:54.048Z,40.20
2022-11-17T12:36:29.768Z,38.03
2022-11-17T12:39:01.091Z,39.45
2022-11-17T12:41:47.228Z,38.90
2022-11-17T12:44:52.169Z,35.35
2022-11-17T12:47:21.771Z,36.88
2022-11-17T12:50:10.473Z,35.50
2022-11-17T12:52:37.914Z,37.90
2022-11-17T12:55:26.167Z,39.60
2022-11-17T12:57:58.398Z,37.83
2022-11-17T13:00:28.744Z,38.50
2022-11-17T13:03:16.941Z,40.83
2022-11-17T13:05:44.374Z,39.30
2022-11-17T13:08:19.938Z,39.25
2022-11-17T13:10:47.830Z,37.40
2022-11-17T13:13:23.690Z,38.92
2022-11-17T13:15:57.005Z,39.15
2022-11-17T13:18:44.667Z,35.72
2022-11-17T13:21:29.565Z,36.85
2022-11-17T13:23:58.992Z,36.55
2022-11-17T13:26:35.742Z,35.35
2022-11-17T13:29:07.157Z,32.72
2022-11-17T13:31:34.747Z,35.67
2022-11-17T13:34:04.879Z,31.33
2022-11-17T13:36:33.414Z,32.53
2022-11-17T13:39:01.219Z,32.90
2022-11-17T13:41:36.941Z,32.92
2022-11-17T13:44:06.430Z,29.05
2022-11-17T13:46:35.297Z,29.25
2022-11-17T13:49:32.812Z,27.98
2022-11-17T13:52:01.243Z,31.48
2022-11-17T13:54:29.108Z,30.67
2022-11-17T13:57:08.138Z,29.90
2022-11-17T13:59:38.688Z,32.35
2022-11-17T14:02:24.604Z,28.55
2022-11-17T14:05:14.263Z,29.10
2022-11-17T14:07:42.992Z,30.95
2022-11-17T14:10:22.602Z,27.60
2022-11-17T14:12:53.061Z,20.83
2022-11-17T14:15:38.667Z,26.15
2022-11-17T14:18:31.544Z,25.25
2022-11-17T14:21:13.985Z,24.35
2022-11-17T14:23:43.259Z,25.52
2022-11-17T14:26:21.226Z,25.52
2022-11-17T14:28:50.421Z,30.38
2022-11-17T14:31:18.456Z,28.45
2022-11-17T14:33:46.178Z,29.95
2022-11-17T14:36:15.957Z,26.38
2022-11-17T14:38:44.981Z,26.92
2022-11-17T14:41:15.643Z,30.98
2022-11-17T14:43:43.187Z,33.95
2022-11-17T14:46:26.783Z,30.58
2022-11-17T14:48:54.462Z,34.58
2022-11-17T14:51:22.228Z,32.20
2022-11-17T14:53:50.020Z,32.63
2022-11-17T14:56:19.609Z,37.25
2022-11-17T14:58:48.226Z,37.80
2022-11-17T15:01:18.518Z,36.50
2022-11-17T15:03:46.824Z,36.30
2022-11-17T15:06:19.419Z,34.42
2022-11-17T15:08:52.797Z,35.70
2022-11-17T15:11:20.222Z,36.03
2022-11-17T15:13:48.325Z,33.08
2022-11-17T15:16:16.395Z,31.35
2022-11-17T15:18:45.566Z,29.15
2022-11-17T15:21:13.332Z,28.58
2022-11-17T15:23:41.764Z,29.00
2022-11-17T15:26:14.251Z,28.35
2022-11-17T15:28:41.964Z,35.45
2022-11-17T15:31:14.008Z,34.40
2022-11-17T15:36:12.277Z,29.23
2022-11-17T15:38:40.877Z,34.42
2022-11-17T15:41:11.048Z,33.08
2022-11-17T15:43:43.682Z,33.00
2022-11-17T15:48:45.688Z,33.40
2022-11-17T15:51:15.399Z,34.22
2022-11-17T15:53:44.353Z,34.70
2022-11-17T15:56:13.200Z,34.95
2022-11-17T15:58:42.559Z,36.70
2022-11-17T16:01:15.380Z,37.05
2022-11-17T16:03:44.785Z,40.80
2022-11-17T16:06:16.054Z,36.75
2022-11-17T16:08:43.724Z,37.15
2022-11-17T16:11:11.625Z,41.60
2022-11-17T16:13:39.107Z,41.10
2022-11-17T16:16:13.925Z,43.90
2022-11-17T16:21:13.506Z,43.97
2022-11-17T16:23:49.036Z,44.13
2022-11-17T16:26:19.389Z,45.58
2022-11-17T16:28:47.140Z,46.47
2022-11-17T16:31:23.728Z,42.58
2022-11-17T16:33:56.522Z,46.97
2022-11-17T16:36:32.722Z,44.60
2022-11-17T16:39:04.777Z,42.20
2022-11-17T16:41:36.845Z,46.55
2022-11-17T16:46:34.718Z,45.60
2022-11-17T16:49:04.771Z,43.55
2022-11-17T16:51:32.633Z,46.58
2022-11-17T16:54:02.818Z,42.95
2022-11-17T16:56:30.895Z,41.85
2022-11-17T16:58:58.979Z,38.78
2022-11-17T17:01:30.961Z,45.53
2022-11-17T17:06:35.426Z,41.75
2022-11-17T17:09:05.754Z,42.03
2022-11-17T17:11:34.561Z,42.13
2022-11-17T17:14:04.564Z,50.55
2022-11-17T17:16:33.821Z,48.28
2022-11-17T17:19:04.403Z,44.60
2022-11-17T17:21:32.833Z,46.50
2022-11-17T17:24:00.886Z,41.63
2022-11-17T17:26:30.418Z,45.63
2022-11-17T17:29:00.248Z,45.20
2022-11-17T17:31:34.587Z,44.20
2022-11-17T17:34:02.377Z,41.83
2022-11-17T17:36:30.544Z,41.70
2022-11-17T17:39:01.806Z,42.33
2022-11-17T17:41:32.110Z,43.30
2022-11-17T17:44:02.235Z,46.35
2022-11-17T17:46:33.629Z,48.83
2022-11-17T17:49:01.503Z,47.78
2022-11-17T17:51:29.427Z,46.67
2022-11-17T17:54:00.953Z,47.33
2022-11-17T17:56:30.473Z,49.80
2022-11-17T17:58:58.075Z,43.60
2022-11-17T18:01:30.882Z,44.00
2022-11-17T18:04:05.840Z,43.05
2022-11-17T18:06:41.888Z,40.30
2022-11-17T18:09:10.795Z,43.58
2022-11-17T18:11:45.647Z,38.63
2022-11-17T18:14:13.471Z,41.85
2022-11-17T18:16:41.177Z,41.45
2022-11-17T18:19:09.550Z,41.55
2022-11-17T18:21:36.977Z,44.55
2022-11-17T18:24:04.963Z,44.13
2022-11-17T18:26:35.313Z,43.03
2022-11-17T18:29:05.666Z,42.78
2022-11-17T18:31:35.391Z,41.97
2022-11-17T18:34:06.422Z,46.80
2022-11-17T18:36:35.459Z,41.47
2022-11-17T18:39:03.634Z,42.92
2022-11-17T18:41:34.096Z,45.85
2022-11-17T18:44:02.106Z,43.13
2022-11-17T18:46:31.631Z,46.05
2022-11-17T18:48:59.861Z,46.15
2022-11-17T18:51:29.624Z,50.63
2022-11-17T18:54:01.544Z,46.30
2022-11-17T18:56:34.514Z,47.13
2022-11-17T18:59:02.462Z,42.55
2022-11-17T19:01:30.620Z,45.95
2022-11-17T19:04:02.459Z,47.42
2022-11-17T19:06:30.616Z,45.42
2022-11-17T19:08:59.783Z,45.08
2022-11-17T19:11:30.195Z,46.90
2022-11-17T19:13:59.404Z,39.75
2022-11-17T19:16:30.007Z,42.05
2022-11-17T19:18:58.050Z,42.55
2022-11-17T19:21:28.174Z,44.78
2022-11-17T19:24:00.807Z,43.90
2022-11-17T19:26:30.522Z,42.75
2022-11-17T19:29:00.317Z,40.03
2022-11-17T19:31:28.240Z,44.20
2022-11-17T19:33:57.058Z,42.22
2022-11-17T19:36:27.329Z,42.75
2022-11-17T19:38:56.387Z,51.05
2022-11-17T19:41:35.281Z,48.53
2022-11-17T19:44:05.793Z,47.72
2022-11-17T19:46:34.156Z,48.30
2022-11-17T19:49:02.056Z,46.88
2022-11-17T19:51:34.139Z,47.80
2022-11-17T19:56:30.011Z,45.88
2022-11-17T19:58:57.989Z,47.53
2022-11-17T20:01:27.701Z,53.38
2022-11-17T20:03:56.642Z,45.95
2022-11-17T20:06:28.018Z,42.67
2022-11-17T20:08:57.424Z,50.00
2022-11-17T20:11:27.045Z,42.28
2022-11-17T20:13:55.760Z,45.88
2022-11-17T20:16:27.430Z,50.20
2022-11-17T20:18:57.300Z,47.08
2022-11-17T20:21:26.291Z,43.80
2022-11-17T20:23:54.779Z,47.53
2022-11-17T20:26:28.054Z,53.38
2022-11-17T20:28:57.447Z,43.75
2022-11-17T20:31:27.941Z,43.85
2022-11-17T20:33:58.222Z,43.42
2022-11-17T20:36:31.226Z,40.88
2022-11-17T20:39:00.885Z,45.45
2022-11-17T20:41:29.181Z,40.50
2022-11-17T20:43:58.268Z,43.08
2022-11-17T20:46:26.875Z,43.40
2022-11-17T20:48:54.568Z,45.25
2022-11-17T20:51:25.206Z,45.00
2022-11-17T20:53:52.659Z,44.80
2022-11-17T20:56:20.181Z,42.45
2022-11-17T20:58:47.718Z,40.72
2022-11-17T21:01:17.139Z,47.75
2022-11-17T21:03:45.592Z,44.95
2022-11-17T21:06:14.129Z,44.35
2022-11-17T21:08:43.370Z,40.20
2022-11-17T21:11:36.224Z,41.75
2022-11-17T21:14:05.799Z,37.80
2022-11-17T21:16:34.154Z,45.75
2022-11-17T21:19:01.630Z,51.40
2022-11-17T21:21:29.524Z,49.10
2022-11-17T21:23:56.959Z,51.78
2022-11-17T21:26:24.610Z,49.20
2022-11-17T21:28:52.695Z,47.88
2022-11-17T21:31:25.785Z,49.58
2022-11-17T21:34:05.245Z,50.08
2022-11-17T21:36:34.461Z,48.20
2022-11-17T21:39:02.200Z,49.90
2022-11-17T21:41:31.992Z,49.17
2022-11-17T21:44:01.917Z,48.70
2022-11-17T21:46:31.833Z,45.55
2022-11-17T21:49:00.302Z,46.70
2022-11-17T21:51:33.324Z,47.47
2022-11-17T21:54:03.828Z,47.63
2022-11-17T21:56:32.083Z,46.65
2022-11-17T21:59:10.470Z,47.88
2022-11-17T22:01:38.222Z,47.15
2022-11-17T22:04:05.906Z,45.60
2022-11-17T22:06:33.745Z,48.10
2022-11-17T22:09:01.327Z,53.35
2022-11-17T22:11:37.522Z,51.50
2022-11-17T22:14:08.585Z,51.42
2022-11-17T22:16:44.262Z,56.13
2022-11-17T22:19:13.269Z,49.90
2022-11-17T22:21:41.679Z,53.78
2022-11-17T22:24:10.959Z,51.00
2022-11-17T22:26:42.406Z,49.17
2022-11-17T22:29:16.097Z,50.78
2022-11-17T22:31:45.095Z,53.65
2022-11-17T22:34:13.442Z,52.80
2022-11-17T22:36:41.233Z,56.05
2022-11-17T22:39:09.453Z,48.25
2022-11-17T22:41:37.210Z,48.58
2022-11-17T22:44:07.748Z,51.63
2022-11-17T22:46:36.418Z,48.95
2022-11-17T22:49:06.473Z,50.65
2022-11-17T22:51:52.845Z,48.75
2022-11-17T22:54:20.324Z,49.90
2022-11-17T22:56:47.817Z,47.42
2022-11-17T22:59:15.644Z,52.67
2022-11-17T23:01:43.258Z,44.60
2022-11-17T23:04:11.505Z,49.83
2022-11-17T23:06:38.850Z,46.60
2022-11-17T23:09:06.253Z,46.58
2022-11-17T23:11:38.305Z,45.60
2022-11-17T23:14:08.238Z,44.78
2022-11-17T23:16:39.492Z,45.25
2022-11-17T23:19:07.281Z,49.03
2022-11-17T23:21:34.750Z,44.33
2022-11-17T23:24:02.204Z,45.05
2022-11-17T23:26:29.621Z,43.47
2022-11-17T23:28:59.161Z,42.63
2022-11-17T23:31:27.987Z,46.38
2022-11-17T23:33:55.403Z,43.33
2022-11-17T23:36:23.537Z,42.35
2022-11-17T23:38:51.669Z,45.50
2022-11-17T23:41:22.316Z,40.25
2022-11-17T23:43:51.292Z,39.15
2022-11-17T23:46:21.429Z,38.83
2022-11-17T23:48:49.052Z,38.08
2022-11-17T23:51:19.394Z,36.50
2022-11-17T23:53:47.172Z,36.97
2022-11-17T23:56:15.580Z,36.50
2022-11-17T23:58:43.563Z,33.13
